Konstantinos G — SVA7802 — position and weather

sailwx.info

Track history (hours):
 
Tides and Currents Weather Stations Pressure Air Temp Water Temp Dewpoint Dewpoint Depression Visibility Wind Speed Wind Dir Waves Ship Positions

Konstantinos G

Last reported at 2018-Jan-20 09:30 UTC. Time now 2018-Jan-20 09:32 UTC.
Position N 38°02' E 023°35'.

Length 80 m; draft 4.1 m.

Type: Cargo ship. MMSI: 241526000.

Date/timePositionNaut miles runAvg speedWind from/ knotsBaromVisibWave heightAir tempDewpointWater temp
2018-Jan-20 09:30N 38°02' E 023°35'0 0.0
2018-Jan-20 09:00N 38°02' E 023°35'0 0.0
2018-Jan-20 08:30N 38°02' E 023°35'0 0.0
2018-Jan-20 08:00N 38°02' E 023°35'0 0.0
2018-Jan-20 07:30N 38°02' E 023°35'0 0.0
2018-Jan-20 07:00N 38°02' E 023°35'0 0.0
2018-Jan-20 06:30N 38°02' E 023°35'0 0.0
2018-Jan-20 06:00N 38°02' E 023°35'0 0.1
2018-Jan-20 05:30N 38°02' E 023°35'1 1.7
2018-Jan-20 05:00N 38°01' E 023°35'0 0.1
2018-Jan-20 04:30N 38°01' E 023°35'0 0.0
2018-Jan-20 04:00N 38°01' E 023°35'0 0.1
2018-Jan-20 03:30N 38°01' E 023°35'0 0.0
2018-Jan-20 03:00N 38°01' E 023°35'0 0.0
2018-Jan-20 02:30N 38°01' E 023°35'0 0.0
2018-Jan-20 02:00N 38°01' E 023°35'0 0.0
2018-Jan-20 01:31N 38°01' E 023°35'0 0.0
2018-Jan-20 01:00N 38°01' E 023°35'0 0.0
2018-Jan-20 00:30N 38°01' E 023°35'0 0.0
2018-Jan-20 00:00N 38°01' E 023°35'0 0.0
2018-Jan-19 23:30N 38°01' E 023°35'0 0.0
2018-Jan-19 23:01N 38°01' E 023°35'0 0.0
2018-Jan-19 22:30N 38°01' E 023°35'0 0.0
2018-Jan-19 22:00N 38°01' E 023°35'0 0.1
2018-Jan-19 21:30N 38°01' E 023°35'0 0.1
2018-Jan-19 21:00N 38°01' E 023°35'0 0.1
2018-Jan-19 20:31N 38°01' E 023°35'3 6.7
2018-Jan-19 20:00N 38°01' E 023°30'4 8.5
2018-Jan-19 19:30N 37°60' E 023°25'3 5.7
2018-Jan-19 19:00N 37°57' E 023°23'4 8.7
2018-Jan-19 18:30N 37°56' E 023°18'4 8.8
2018-Jan-19 18:00N 37°55' E 023°13'4 8.8
2018-Jan-19 17:30N 37°54' E 023°07'4 8.5
2018-Jan-19 17:00N 37°54' E 023°02'4 7.3
2018-Jan-19 16:30N 37°57' E 022°58'1 2.5
2018-Jan-19 16:00N 37°58' E 022°57'1 2.8
2018-Jan-19 15:30N 37°57' E 022°56'0 0.0
2018-Jan-19 14:59N 37°57' E 022°56'0 0.0
2018-Jan-19 14:29N 37°57' E 022°56'0 0.0
2018-Jan-19 14:00N 37°57' E 022°56'0 0.0
2018-Jan-19 13:30N 37°57' E 022°56'0 0.0
2018-Jan-19 13:00N 37°57' E 022°56'0 0.0
2018-Jan-19 12:30N 37°57' E 022°56'0 0.0
2018-Jan-19 12:00N 37°57' E 022°56'0 0.0
2018-Jan-19 11:30N 37°57' E 022°56'0 0.0
2018-Jan-19 11:00N 37°57' E 022°56'0 0.0
2018-Jan-19 10:30N 37°57' E 022°56'0 0.0
2018-Jan-19 10:00N 37°57' E 022°56'0 0.0
2018-Jan-19 09:30N 37°57' E 022°56'0 0.0
2018-Jan-19 09:00N 37°57' E 022°56'0 0.0
2018-Jan-19 08:30N 37°57' E 022°56'0 0.0
2018-Jan-19 08:00N 37°57' E 022°56'0 0.0
2018-Jan-19 07:30N 37°57' E 022°56'0 0.0
2018-Jan-19 07:00N 37°57' E 022°56'0 0.0
2018-Jan-19 06:30N 37°57' E 022°56'0 0.0
2018-Jan-19 06:00N 37°57' E 022°56'0 0.0
2018-Jan-19 05:30N 37°57' E 022°56'0 0.0
2018-Jan-19 05:00N 37°57' E 022°56'0 0.0
2018-Jan-19 04:30N 37°57' E 022°56'0 0.0
2018-Jan-19 04:00N 37°57' E 022°56'0 0.0
2018-Jan-19 03:30N 37°57' E 022°56'0 0.0
2018-Jan-19 03:00N 37°57' E 022°56'0 0.0
2018-Jan-19 02:30N 37°57' E 022°56'0 0.0
2018-Jan-19 02:00N 37°57' E 022°56'0 0.0
2018-Jan-19 01:30N 37°57' E 022°56'0 0.0
2018-Jan-19 01:00N 37°57' E 022°56'0 0.0
2018-Jan-19 00:30N 37°57' E 022°56'0 0.0
2018-Jan-19 00:00N 37°57' E 022°56'0 0.0
2018-Jan-18 23:30N 37°57' E 022°56'0 0.0
2018-Jan-18 23:00N 37°57' E 022°56'0 0.0
2018-Jan-18 22:30N 37°57' E 022°56'0 0.0
2018-Jan-18 22:00N 37°57' E 022°56'0 0.0
2018-Jan-18 21:30N 37°57' E 022°56'0 0.0
2018-Jan-18 21:00N 37°57' E 022°56'0 0.0
2018-Jan-18 20:30N 37°57' E 022°56'0 0.0
2018-Jan-18 20:00N 37°57' E 022°56'0 0.0
2018-Jan-18 19:30N 37°57' E 022°56'0 0.0
2018-Jan-18 19:00N 37°57' E 022°56'0 0.0
2018-Jan-18 18:30N 37°57' E 022°56'0 0.0
2018-Jan-18 18:00N 37°57' E 022°56'0 0.0
2018-Jan-18 17:30N 37°57' E 022°56'0 0.0
2018-Jan-18 17:00N 37°57' E 022°56'0 0.0
2018-Jan-18 16:30N 37°57' E 022°56'0 0.0
2018-Jan-18 16:00N 37°57' E 022°56'0 0.0
2018-Jan-18 15:30N 37°57' E 022°56'0 0.0
2018-Jan-18 15:00N 37°57' E 022°56'0 0.0
2018-Jan-18 14:30N 37°57' E 022°56'0 0.0
2018-Jan-18 14:00N 37°57' E 022°56'0 0.0
2018-Jan-18 13:30N 37°57' E 022°56'0 0.0
2018-Jan-18 13:00N 37°57' E 022°56'0 0.0
2018-Jan-18 12:30N 37°57' E 022°56'0 0.0
2018-Jan-18 12:00N 37°57' E 022°56'0 0.0
2018-Jan-18 11:30N 37°57' E 022°56'0 0.0
2018-Jan-18 11:00N 37°57' E 022°56'0 0.0
2018-Jan-18 10:30N 37°57' E 022°56'0 0.0
2018-Jan-18 10:00N 37°57' E 022°56'0 0.0
2018-Jan-18 09:30N 37°57' E 022°56'0 0.0
2018-Jan-18 09:00N 37°57' E 022°56'0 0.0
2018-Jan-18 08:30N 37°57' E 022°56'0 0.0
2018-Jan-18 07:58N 37°57' E 022°56'0 0.0
2018-Jan-18 07:30N 37°57' E 022°56'0 0.0
2018-Jan-18 07:00N 37°57' E 022°56'0 0.0
2018-Jan-18 06:30N 37°57' E 022°56'0 0.0
2018-Jan-18 06:00N 37°57' E 022°56'0 0.0
2018-Jan-18 05:30N 37°57' E 022°56'0 0.0
2018-Jan-18 05:00N 37°57' E 022°56'0 0.0
2018-Jan-18 04:30N 37°57' E 022°56'0 0.0
2018-Jan-18 04:00N 37°57' E 022°56'0 0.0
2018-Jan-18 03:30N 37°57' E 022°56'0 0.0
2018-Jan-18 03:00N 37°57' E 022°56'0 0.0
2018-Jan-18 02:30N 37°57' E 022°56'0 0.0
2018-Jan-18 01:59N 37°57' E 022°56'0 0.0
2018-Jan-18 01:30N 37°57' E 022°56'0 0.0
2018-Jan-18 01:00N 37°57' E 022°56'0 0.0
2018-Jan-18 00:00N 37°57' E 022°56'0 0.0
2018-Jan-17 23:57N 37°57' E 022°56'  
2018-Jan-12 15:00N 40°57' E 024°29'0 0.0
2018-Jan-12 14:30N 40°57' E 024°29'0 0.0
2018-Jan-12 14:00N 40°57' E 024°29'0 0.0
2018-Jan-12 13:30N 40°57' E 024°29'0 0.0
2018-Jan-12 13:00N 40°57' E 024°29'0 0.0
2018-Jan-12 12:30N 40°57' E 024°29'0 0.0
2018-Jan-12 12:00N 40°57' E 024°29'0 0.0
2018-Jan-12 11:30N 40°57' E 024°29'0 0.0
2018-Jan-12 11:00N 40°57' E 024°29'0 0.0
2018-Jan-12 10:30N 40°57' E 024°29'0 0.0
2018-Jan-12 10:00N 40°57' E 024°29'0 0.0
2018-Jan-12 09:30N 40°57' E 024°29'0 0.0
2018-Jan-12 09:00N 40°57' E 024°29'0 0.0
2018-Jan-12 08:30N 40°57' E 024°29'0 0.0
2018-Jan-12 08:00N 40°57' E 024°29'0 0.0
2018-Jan-12 07:30N 40°57' E 024°29'0 0.0
2018-Jan-12 07:00N 40°57' E 024°29'1 1.3
2018-Jan-12 06:30N 40°56' E 024°29'1 1.3
2018-Jan-12 06:00N 40°56' E 024°29'0 0.3
2018-Jan-12 05:30N 40°56' E 024°29'0 0.0
2018-Jan-12 05:00N 40°56' E 024°29'0 0.1
2018-Jan-12 04:30N 40°56' E 024°29'0 0.1
2018-Jan-12 04:00N 40°56' E 024°29'0 0.0
2018-Jan-12 03:30N 40°56' E 024°29'0 0.0
2018-Jan-12 03:00N 40°56' E 024°29'0 0.0
2018-Jan-12 02:30N 40°56' E 024°29'0 0.0
2018-Jan-12 02:00N 40°56' E 024°29'0 0.1
2018-Jan-12 01:30N 40°56' E 024°29'0 0.1
2018-Jan-12 01:00N 40°56' E 024°29'0 0.1
2018-Jan-12 00:30N 40°56' E 024°29'0 0.1
2018-Jan-12 00:00N 40°56' E 024°29'0 0.0
2018-Jan-11 23:30N 40°56' E 024°29'2 4.4
2018-Jan-11 23:00N 40°54' E 024°29'4 8.4
2018-Jan-11 22:30N 40°49' E 024°29'4 8.4
2018-Jan-11 22:00N 40°45' E 024°28'4 8.5
2018-Jan-11 21:30N 40°41' E 024°28'4 8.6
2018-Jan-11 21:00N 40°37' E 024°28'4 8.5
2018-Jan-11 20:29N 40°32' E 024°27'7 8.6
2018-Jan-11 19:41N 40°25' E 024°26'2 8.8
2018-Jan-11 19:29N 40°24' E 024°26'4 8.7
2018-Jan-11 18:59N 40°19' E 024°26'4 8.5
2018-Jan-11 18:30N 40°15' E 024°26'13 7.6
2018-Jan-11 16:50N 40°03' E 024°20'3 8.2
2018-Jan-11 16:30N 40°01' E 024°18'5 8.5
2018-Jan-11 15:51N 39°57' E 024°14'3 8.3
2018-Jan-11 15:29N 39°55' E 024°11'4 8.4
2018-Jan-11 14:59N 39°53' E 024°06'  
Track history (hours):
 
Tides and Currents Weather Stations Pressure Air Temp Water Temp Dewpoint Dewpoint Depression Visibility Wind Speed Wind Dir Waves Ship Positions

Konstantinos G

Last reported at 2018-Jan-20 09:30 UTC. Time now 2018-Jan-20 09:32 UTC.
Position N 38°02' E 023°35'.

Length 80 m; draft 4.1 m.

Type: Cargo ship. MMSI: 241526000.

Date/timePositionNaut miles runAvg speedWind from/ knotsBaromVisibWave heightAir tempDewpointWater temp
2018-Jan-20 09:30N 38°02' E 023°35'0 0.0
2018-Jan-20 09:00N 38°02' E 023°35'0 0.0
2018-Jan-20 08:30N 38°02' E 023°35'0 0.0
2018-Jan-20 08:00N 38°02' E 023°35'0 0.0
2018-Jan-20 07:30N 38°02' E 023°35'0 0.0
2018-Jan-20 07:00N 38°02' E 023°35'0 0.0
2018-Jan-20 06:30N 38°02' E 023°35'0 0.0
2018-Jan-20 06:00N 38°02' E 023°35'0 0.1
2018-Jan-20 05:30N 38°02' E 023°35'1 1.7
2018-Jan-20 05:00N 38°01' E 023°35'0 0.1
2018-Jan-20 04:30N 38°01' E 023°35'0 0.0
2018-Jan-20 04:00N 38°01' E 023°35'0 0.1
2018-Jan-20 03:30N 38°01' E 023°35'0 0.0
2018-Jan-20 03:00N 38°01' E 023°35'0 0.0
2018-Jan-20 02:30N 38°01' E 023°35'0 0.0
2018-Jan-20 02:00N 38°01' E 023°35'0 0.0
2018-Jan-20 01:31N 38°01' E 023°35'0 0.0
2018-Jan-20 01:00N 38°01' E 023°35'0 0.0
2018-Jan-20 00:30N 38°01' E 023°35'0 0.0
2018-Jan-20 00:00N 38°01' E 023°35'0 0.0
2018-Jan-19 23:30N 38°01' E 023°35'0 0.0
2018-Jan-19 23:01N 38°01' E 023°35'0 0.0
2018-Jan-19 22:30N 38°01' E 023°35'0 0.0
2018-Jan-19 22:00N 38°01' E 023°35'0 0.1
2018-Jan-19 21:30N 38°01' E 023°35'0 0.1
2018-Jan-19 21:00N 38°01' E 023°35'0 0.1
2018-Jan-19 20:31N 38°01' E 023°35'3 6.7
2018-Jan-19 20:00N 38°01' E 023°30'4 8.5
2018-Jan-19 19:30N 37°60' E 023°25'3 5.7
2018-Jan-19 19:00N 37°57' E 023°23'4 8.7
2018-Jan-19 18:30N 37°56' E 023°18'4 8.8
2018-Jan-19 18:00N 37°55' E 023°13'4 8.8
2018-Jan-19 17:30N 37°54' E 023°07'4 8.5
2018-Jan-19 17:00N 37°54' E 023°02'4 7.3
2018-Jan-19 16:30N 37°57' E 022°58'1 2.5
2018-Jan-19 16:00N 37°58' E 022°57'1 2.8
2018-Jan-19 15:30N 37°57' E 022°56'0 0.0
2018-Jan-19 14:59N 37°57' E 022°56'0 0.0
2018-Jan-19 14:29N 37°57' E 022°56'0 0.0
2018-Jan-19 14:00N 37°57' E 022°56'0 0.0
2018-Jan-19 13:30N 37°57' E 022°56'0 0.0
2018-Jan-19 13:00N 37°57' E 022°56'0 0.0
2018-Jan-19 12:30N 37°57' E 022°56'0 0.0
2018-Jan-19 12:00N 37°57' E 022°56'0 0.0
2018-Jan-19 11:30N 37°57' E 022°56'0 0.0
2018-Jan-19 11:00N 37°57' E 022°56'0 0.0
2018-Jan-19 10:30N 37°57' E 022°56'0 0.0
2018-Jan-19 10:00N 37°57' E 022°56'0 0.0
2018-Jan-19 09:30N 37°57' E 022°56'0 0.0
2018-Jan-19 09:00N 37°57' E 022°56'0 0.0
2018-Jan-19 08:30N 37°57' E 022°56'0 0.0
2018-Jan-19 08:00N 37°57' E 022°56'0 0.0
2018-Jan-19 07:30N 37°57' E 022°56'0 0.0
2018-Jan-19 07:00N 37°57' E 022°56'0 0.0
2018-Jan-19 06:30N 37°57' E 022°56'0 0.0
2018-Jan-19 06:00N 37°57' E 022°56'0 0.0
2018-Jan-19 05:30N 37°57' E 022°56'0 0.0
2018-Jan-19 05:00N 37°57' E 022°56'0 0.0
2018-Jan-19 04:30N 37°57' E 022°56'0 0.0
2018-Jan-19 04:00N 37°57' E 022°56'0 0.0
2018-Jan-19 03:30N 37°57' E 022°56'0 0.0
2018-Jan-19 03:00N 37°57' E 022°56'0 0.0
2018-Jan-19 02:30N 37°57' E 022°56'0 0.0
2018-Jan-19 02:00N 37°57' E 022°56'0 0.0
2018-Jan-19 01:30N 37°57' E 022°56'0 0.0
2018-Jan-19 01:00N 37°57' E 022°56'0 0.0
2018-Jan-19 00:30N 37°57' E 022°56'0 0.0
2018-Jan-19 00:00N 37°57' E 022°56'0 0.0
2018-Jan-18 23:30N 37°57' E 022°56'0 0.0
2018-Jan-18 23:00N 37°57' E 022°56'0 0.0
2018-Jan-18 22:30N 37°57' E 022°56'0 0.0
2018-Jan-18 22:00N 37°57' E 022°56'0 0.0
2018-Jan-18 21:30N 37°57' E 022°56'0 0.0
2018-Jan-18 21:00N 37°57' E 022°56'0 0.0
2018-Jan-18 20:30N 37°57' E 022°56'0 0.0
2018-Jan-18 20:00N 37°57' E 022°56'0 0.0
2018-Jan-18 19:30N 37°57' E 022°56'0 0.0
2018-Jan-18 19:00N 37°57' E 022°56'0 0.0
2018-Jan-18 18:30N 37°57' E 022°56'0 0.0
2018-Jan-18 18:00N 37°57' E 022°56'0 0.0
2018-Jan-18 17:30N 37°57' E 022°56'0 0.0
2018-Jan-18 17:00N 37°57' E 022°56'0 0.0
2018-Jan-18 16:30N 37°57' E 022°56'0 0.0
2018-Jan-18 16:00N 37°57' E 022°56'0 0.0
2018-Jan-18 15:30N 37°57' E 022°56'0 0.0
2018-Jan-18 15:00N 37°57' E 022°56'0 0.0
2018-Jan-18 14:30N 37°57' E 022°56'0 0.0
2018-Jan-18 14:00N 37°57' E 022°56'0 0.0
2018-Jan-18 13:30N 37°57' E 022°56'0 0.0
2018-Jan-18 13:00N 37°57' E 022°56'0 0.0
2018-Jan-18 12:30N 37°57' E 022°56'0 0.0
2018-Jan-18 12:00N 37°57' E 022°56'0 0.0
2018-Jan-18 11:30N 37°57' E 022°56'0 0.0
2018-Jan-18 11:00N 37°57' E 022°56'0 0.0
2018-Jan-18 10:30N 37°57' E 022°56'0 0.0
2018-Jan-18 10:00N 37°57' E 022°56'0 0.0
2018-Jan-18 09:30N 37°57' E 022°56'0 0.0
2018-Jan-18 09:00N 37°57' E 022°56'0 0.0
2018-Jan-18 08:30N 37°57' E 022°56'0 0.0
2018-Jan-18 07:58N 37°57' E 022°56'0 0.0
2018-Jan-18 07:30N 37°57' E 022°56'0 0.0
2018-Jan-18 07:00N 37°57' E 022°56'0 0.0
2018-Jan-18 06:30N 37°57' E 022°56'0 0.0
2018-Jan-18 06:00N 37°57' E 022°56'0 0.0
2018-Jan-18 05:30N 37°57' E 022°56'0 0.0
2018-Jan-18 05:00N 37°57' E 022°56'0 0.0
2018-Jan-18 04:30N 37°57' E 022°56'0 0.0
2018-Jan-18 04:00N 37°57' E 022°56'0 0.0
2018-Jan-18 03:30N 37°57' E 022°56'0 0.0
2018-Jan-18 03:00N 37°57' E 022°56'0 0.0
2018-Jan-18 02:30N 37°57' E 022°56'0 0.0
2018-Jan-18 01:59N 37°57' E 022°56'0 0.0
2018-Jan-18 01:30N 37°57' E 022°56'0 0.0
2018-Jan-18 01:00N 37°57' E 022°56'0 0.0
2018-Jan-18 00:00N 37°57' E 022°56'0 0.0
2018-Jan-17 23:57N 37°57' E 022°56'  
2018-Jan-12 15:00N 40°57' E 024°29'0 0.0
2018-Jan-12 14:30N 40°57' E 024°29'0 0.0
2018-Jan-12 14:00N 40°57' E 024°29'0 0.0
2018-Jan-12 13:30N 40°57' E 024°29'0 0.0
2018-Jan-12 13:00N 40°57' E 024°29'0 0.0
2018-Jan-12 12:30N 40°57' E 024°29'0 0.0
2018-Jan-12 12:00N 40°57' E 024°29'0 0.0
2018-Jan-12 11:30N 40°57' E 024°29'0 0.0
2018-Jan-12 11:00N 40°57' E 024°29'0 0.0
2018-Jan-12 10:30N 40°57' E 024°29'0 0.0
2018-Jan-12 10:00N 40°57' E 024°29'0 0.0
2018-Jan-12 09:30N 40°57' E 024°29'0 0.0
2018-Jan-12 09:00N 40°57' E 024°29'0 0.0
2018-Jan-12 08:30N 40°57' E 024°29'0 0.0
2018-Jan-12 08:00N 40°57' E 024°29'0 0.0
2018-Jan-12 07:30N 40°57' E 024°29'0 0.0
2018-Jan-12 07:00N 40°57' E 024°29'1 1.3
2018-Jan-12 06:30N 40°56' E 024°29'1 1.3
2018-Jan-12 06:00N 40°56' E 024°29'0 0.3
2018-Jan-12 05:30N 40°56' E 024°29'0 0.0
2018-Jan-12 05:00N 40°56' E 024°29'0 0.1
2018-Jan-12 04:30N 40°56' E 024°29'0 0.1
2018-Jan-12 04:00N 40°56' E 024°29'0 0.0
2018-Jan-12 03:30N 40°56' E 024°29'0 0.0
2018-Jan-12 03:00N 40°56' E 024°29'0 0.0
2018-Jan-12 02:30N 40°56' E 024°29'0 0.0
2018-Jan-12 02:00N 40°56' E 024°29'0 0.1
2018-Jan-12 01:30N 40°56' E 024°29'0 0.1
2018-Jan-12 01:00N 40°56' E 024°29'0 0.1
2018-Jan-12 00:30N 40°56' E 024°29'0 0.1
2018-Jan-12 00:00N 40°56' E 024°29'0 0.0
2018-Jan-11 23:30N 40°56' E 024°29'2 4.4
2018-Jan-11 23:00N 40°54' E 024°29'4 8.4
2018-Jan-11 22:30N 40°49' E 024°29'4 8.4
2018-Jan-11 22:00N 40°45' E 024°28'4 8.5
2018-Jan-11 21:30N 40°41' E 024°28'4 8.6
2018-Jan-11 21:00N 40°37' E 024°28'4 8.5
2018-Jan-11 20:29N 40°32' E 024°27'7 8.6
2018-Jan-11 19:41N 40°25' E 024°26'2 8.8
2018-Jan-11 19:29N 40°24' E 024°26'4 8.7
2018-Jan-11 18:59N 40°19' E 024°26'4 8.5
2018-Jan-11 18:30N 40°15' E 024°26'13 7.6
2018-Jan-11 16:50N 40°03' E 024°20'3 8.2
2018-Jan-11 16:30N 40°01' E 024°18'5 8.5
2018-Jan-11 15:51N 39°57' E 024°14'3 8.3
2018-Jan-11 15:29N 39°55' E 024°11'4 8.4
2018-Jan-11 14:59N 39°53' E 024°06'  

Dump ship's entire track history